Time;durP1;ratioP1;P1;durP2;ratioP2;P2;SDS_P1;SDS_P2;PMS_P1;PMS_P2;Temp;Humidity;BMP_temperature;BMP_pressure;BME280_temperature;BME280_humidity;BME280_pressure;Samples;Min_cycle;Max_cycle;Signal;HPM_P1;HPM_P2
2021/11/15 00:06:21;;;;;;;10.40;3.85;;;9.60;99.90;;;;;;20737357;28;20052;-44
2021/11/15 00:16:22;;;;;;;12.65;3.78;;;9.50;99.90;;;;;;20774092;28;20049;-44
2021/11/15 00:26:23;;;;;;;9.98;3.42;;;9.50;99.90;;;;;;20776648;28;20123;-43
2021/11/15 00:36:23;;;;;;;7.93;3.13;;;9.50;99.90;;;;;;20765451;28;20054;-44
2021/11/15 00:46:25;;;;;;;6.95;3.55;;;9.50;99.90;;;;;;20746247;28;20071;-44
2021/11/15 00:56:25;;;;;;;7.88;3.40;;;9.40;99.90;;;;;;20783427;28;20052;-44
2021/11/15 01:06:26;;;;;;;12.63;4.28;;;9.50;99.90;;;;;;20779075;28;20045;-44
2021/11/15 01:16:27;;;;;;;9.38;3.97;;;9.40;99.90;;;;;;20793642;28;20043;-44
2021/11/15 01:26:28;;;;;;;14.32;3.78;;;9.40;99.90;;;;;;20791755;28;20065;-44
2021/11/15 01:36:29;;;;;;;10.88;4.15;;;9.40;99.90;;;;;;20765360;28;20545;-44
2021/11/15 01:46:29;;;;;;;10.00;3.95;;;9.40;99.90;;;;;;20787621;28;20124;-44
2021/11/15 01:56:30;;;;;;;9.43;3.80;;;9.30;99.90;;;;;;20774877;28;20700;-44
2021/11/15 02:06:31;;;;;;;10.35;3.50;;;9.40;99.90;;;;;;20784059;28;20059;-43
2021/11/15 02:16:32;;;;;;;13.43;3.13;;;9.30;99.90;;;;;;20774518;28;20111;-43
2021/11/15 02:26:33;;;;;;;7.85;3.63;;;9.20;99.90;;;;;;20796600;28;20396;-44
2021/11/15 02:36:34;;;;;;;8.80;2.88;;;9.20;99.90;;;;;;20794077;28;20052;-44
2021/11/15 02:46:35;;;;;;;12.63;4.20;;;9.30;99.90;;;;;;20764907;28;20056;-44
2021/11/15 02:56:39;;;;;;;10.85;4.00;;;9.20;99.90;;;;;;20783449;28;20501;-44
2021/11/15 03:06:40;;;;;;;8.40;3.08;;;9.20;99.90;;;;;;20781783;28;20381;-44
2021/11/15 03:16:41;;;;;;;9.30;3.53;;;9.20;99.90;;;;;;20783807;28;20074;-44
2021/11/15 03:26:42;;;;;;;7.72;3.40;;;9.10;99.90;;;;;;20784328;28;20099;-44
2021/11/15 03:36:46;;;;;;;12.90;2.70;;;9.00;99.90;;;;;;20748867;28;20519;-43
2021/11/15 03:46:47;;;;;;;6.50;2.47;;;9.00;99.90;;;;;;20772929;28;20300;-44
2021/11/15 03:56:47;;;;;;;7.32;2.42;;;8.90;99.90;;;;;;20781288;28;20049;-44
2021/11/15 04:06:51;;;;;;;7.13;2.50;;;8.90;99.90;;;;;;20765938;28;20440;-44
2021/11/15 04:16:51;;;;;;;10.05;3.45;;;8.90;99.90;;;;;;20786616;28;20317;-45
2021/11/15 04:26:52;;;;;;;6.82;3.08;;;8.80;99.90;;;;;;20798871;28;20072;-44
2021/11/15 04:36:53;;;;;;;9.52;2.90;;;8.90;99.90;;;;;;20786466;28;20504;-44
2021/11/15 04:46:53;;;;;;;7.00;2.58;;;8.90;99.90;;;;;;20804651;28;20041;-44
2021/11/15 04:56:54;;;;;;;10.60;3.42;;;8.80;99.90;;;;;;20784164;28;20090;-43
2021/11/15 05:06:55;;;;;;;9.57;3.42;;;8.80;99.90;;;;;;20786289;28;20047;-44
2021/11/15 05:16:56;;;;;;;6.88;3.17;;;8.80;99.90;;;;;;20788568;28;20095;-43
2021/11/15 05:26:56;;;;;;;9.35;2.80;;;8.70;99.90;;;;;;20767988;28;20078;-43
2021/11/15 05:36:57;;;;;;;7.88;3.22;;;8.70;99.90;;;;;;20776340;28;20099;-43
2021/11/15 05:46:58;;;;;;;11.82;3.08;;;8.70;99.90;;;;;;20804869;28;20041;-44
2021/11/15 05:56:58;;;;;;;9.55;3.53;;;8.60;99.90;;;;;;20799487;28;20044;-44
2021/11/15 06:06:59;;;;;;;9.80;4.13;;;8.70;99.90;;;;;;20794600;28;20063;-44
2021/11/15 06:17:00;;;;;;;12.53;4.10;;;8.70;99.90;;;;;;20784556;28;20053;-43
2021/11/15 06:27:01;;;;;;;9.50;3.13;;;8.60;99.90;;;;;;20789995;28;21008;-43
2021/11/15 06:37:02;;;;;;;6.22;3.00;;;8.60;99.90;;;;;;20735834;28;20316;-43
2021/11/15 06:47:02;;;;;;;12.15;3.30;;;8.60;99.90;;;;;;20714943;28;20625;-43
2021/11/15 06:57:03;;;;;;;9.82;3.55;;;8.50;99.90;;;;;;20729597;28;20087;-44
2021/11/15 07:07:04;;;;;;;9.32;3.78;;;8.50;99.90;;;;;;20707299;28;20046;-43
2021/11/15 07:17:05;;;;;;;6.85;3.17;;;8.50;99.90;;;;;;20727709;28;21099;-43
2021/11/15 07:27:06;;;;;;;9.95;4.20;;;8.50;99.90;;;;;;20734243;28;20090;-43
2021/11/15 07:37:08;;;;;;;10.43;4.07;;;8.50;99.90;;;;;;20727467;28;20291;-43
2021/11/15 07:47:10;;;;;;;10.82;3.20;;;8.50;99.90;;;;;;20730650;28;20124;-43
2021/11/15 07:57:10;;;;;;;9.05;3.80;;;8.40;99.90;;;;;;20761947;28;20058;-43
2021/11/15 08:07:11;;;;;;;7.47;3.60;;;8.40;99.90;;;;;;20775121;28;20034;-43
2021/11/15 08:17:12;;;;;;;7.90;3.20;;;8.30;99.90;;;;;;20764936;28;20045;-43
2021/11/15 08:27:13;;;;;;;14.10;4.85;;;8.30;99.90;;;;;;20764056;28;20322;-43
2021/11/15 08:37:14;;;;;;;11.02;3.85;;;8.40;99.90;;;;;;20765068;28;20050;-43
2021/11/15 08:47:14;;;;;;;6.80;3.28;;;8.40;99.90;;;;;;20773422;28;20640;-43
2021/11/15 08:57:15;;;;;;;11.93;3.13;;;8.40;99.90;;;;;;20766303;28;20045;-43
2021/11/15 09:07:17;;;;;;;10.65;3.42;;;8.30;99.90;;;;;;20773270;28;20046;-43
2021/11/15 09:17:17;;;;;;;13.82;3.65;;;8.30;99.90;;;;;;20775129;28;20049;-43
2021/11/15 09:27:18;;;;;;;15.20;4.10;;;8.30;99.90;;;;;;20769500;28;20041;-43
2021/11/15 09:37:20;;;;;;;14.45;4.60;;;8.40;99.90;;;;;;20782411;28;20381;-43
2021/11/15 09:47:20;;;;;;;16.65;5.60;;;8.30;99.90;;;;;;20785831;28;20042;-43
2021/11/15 09:57:21;;;;;;;11.57;3.58;;;8.20;99.90;;;;;;20781608;28;20060;-43
2021/11/15 10:07:39;;;;;;;8.90;3.03;;;8.30;99.90;;;;;;20783696;28;20041;-43
2021/11/15 10:17:44;;;;;;;8.40;3.05;;;8.30;99.90;;;;;;20794881;28;20315;-43
2021/11/15 10:27:45;;;;;;;11.82;3.85;;;8.30;99.90;;;;;;20774539;28;20061;-43
2021/11/15 10:37:48;;;;;;;14.27;5.40;;;8.30;99.90;;;;;;20770681;28;20065;-43
2021/11/15 10:47:55;;;;;;;11.50;3.78;;;8.20;99.90;;;;;;20774712;28;20139;-43
2021/11/15 10:57:56;;;;;;;7.03;3.53;;;8.20;99.90;;;;;;20773308;28;20053;-43
2021/11/15 11:08:16;;;;;;;8.27;4.07;;;8.10;99.90;;;;;;20780749;28;20037;-43
2021/11/15 11:18:36;;;;;;;13.50;4.18;;;8.20;99.90;;;;;;20775226;28;20144;-44
2021/11/15 11:28:42;;;;;;;10.18;2.78;;;8.10;99.90;;;;;;20755614;28;20041;-44
2021/11/15 11:38:44;;;;;;;8.98;3.38;;;8.10;99.90;;;;;;20765614;28;20160;-44
2021/11/15 11:48:49;;;;;;;9.65;3.00;;;8.00;99.90;;;;;;20753731;28;20049;-44
2021/11/15 11:58:53;;;;;;;11.88;4.28;;;8.00;99.90;;;;;;20778576;28;20111;-44
2021/11/15 12:08:56;;;;;;;11.93;3.45;;;7.90;99.90;;;;;;20761310;28;20189;-44
2021/11/15 12:19:01;;;;;;;12.20;3.70;;;7.80;99.90;;;;;;20757508;28;20049;-44
2021/11/15 12:29:17;;;;;;;10.98;3.72;;;7.80;99.90;;;;;;20762748;28;20062;-44
2021/11/15 12:39:30;;;;;;;11.20;2.78;;;7.80;99.90;;;;;;20763278;28;20054;-44
2021/11/15 12:49:34;;;;;;;11.95;2.65;;;7.80;99.90;;;;;;20780210;28;20044;-44
2021/11/15 12:59:38;;;;;;;7.28;2.15;;;7.70;99.90;;;;;;20765568;28;20044;-44
2021/11/15 13:09:43;;;;;;;9.52;2.75;;;7.70;99.90;;;;;;20778527;28;20038;-44
2021/11/15 13:19:45;;;;;;;9.68;2.15;;;7.70;99.90;;;;;;20763833;28;20132;-44
2021/11/15 13:29:51;;;;;;;5.32;1.75;;;7.70;99.90;;;;;;20779383;28;20398;-44
2021/11/15 13:39:53;;;;;;;7.30;1.63;;;7.60;99.90;;;;;;20769172;28;20531;-44
2021/11/15 13:49:54;;;;;;;7.18;2.28;;;7.60;99.90;;;;;;20784098;28;20438;-44
2021/11/15 13:59:56;;;;;;;7.07;2.20;;;7.60;99.90;;;;;;20770279;28;20464;-44
2021/11/15 14:09:56;;;;;;;5.03;1.55;;;7.50;99.90;;;;;;20770464;28;22328;-44
2021/11/15 14:19:57;;;;;;;4.53;1.77;;;7.40;99.90;;;;;;20759793;28;20414;-44
2021/11/15 14:29:58;;;;;;;8.07;2.33;;;7.40;99.90;;;;;;20766755;28;20643;-44
2021/11/15 14:39:58;;;;;;;3.30;1.58;;;7.30;99.90;;;;;;20766571;28;20535;-44
2021/11/15 14:49:59;;;;;;;3.47;1.30;;;7.40;99.90;;;;;;20766218;28;20037;-44
2021/11/15 15:00:00;;;;;;;4.57;1.10;;;7.30;99.90;;;;;;20776887;28;20062;-44
2021/11/15 15:10:07;;;;;;;3.60;1.20;;;7.20;99.90;;;;;;20767807;28;20047;-44
2021/11/15 15:20:09;;;;;;;5.50;1.77;;;7.10;99.90;;;;;;20765245;28;20045;-44
2021/11/15 15:30:11;;;;;;;4.28;1.25;;;7.10;99.90;;;;;;20760396;28;20121;-44
2021/11/15 15:40:15;;;;;;;3.85;1.63;;;7.10;99.90;;;;;;20760024;28;20081;-44
2021/11/15 15:50:16;;;;;;;4.63;1.58;;;6.90;99.90;;;;;;20737969;28;20049;-44
2021/11/15 16:00:18;;;;;;;8.43;2.17;;;6.90;99.90;;;;;;20718702;28;20052;-44
2021/11/15 16:20:41;;;;;;;6.00;2.65;;;6.90;99.90;;;;;;20775491;28;20053;-44
2021/11/15 16:30:42;;;;;;;8.45;2.33;;;6.80;99.90;;;;;;20750767;28;20065;-44
2021/11/15 16:40:43;;;;;;;6.30;2.05;;;6.90;99.90;;;;;;20759648;28;20114;-44
2021/11/15 16:50:46;;;;;;;5.40;2.55;;;6.80;99.90;;;;;;20758038;28;20144;-44
2021/11/15 17:00:47;;;;;;;7.70;2.33;;;6.80;99.90;;;;;;20764144;28;20041;-44
2021/11/15 17:10:48;;;;;;;9.68;2.95;;;6.80;99.90;;;;;;20761666;28;20037;-44
2021/11/15 17:20:55;;;;;;;9.88;2.67;;;6.80;99.90;;;;;;20754521;28;20137;-44
2021/11/15 17:30:58;;;;;;;12.47;3.77;;;6.80;99.90;;;;;;20735736;28;20026;-44
2021/11/15 17:40:59;;;;;;;15.48;4.03;;;6.80;99.90;;;;;;20726896;28;20287;-44
2021/11/15 17:51:08;;;;;;;18.88;3.65;;;6.80;99.90;;;;;;20738050;28;20038;-45
2021/11/15 18:01:10;;;;;;;12.85;3.67;;;6.70;99.90;;;;;;20739710;28;20091;-44
2021/11/15 18:11:13;;;;;;;9.35;4.63;;;6.80;99.90;;;;;;20734591;28;20263;-44
2021/11/15 18:21:15;;;;;;;13.70;5.57;;;6.80;99.90;;;;;;20755119;28;20493;-44
2021/11/15 18:31:16;;;;;;;13.80;5.38;;;6.70;99.90;;;;;;20747655;28;20037;-44
2021/11/15 18:41:19;;;;;;;17.38;5.03;;;6.80;99.90;;;;;;20732903;28;20072;-44
2021/11/15 18:51:21;;;;;;;15.15;5.28;;;6.70;99.90;;;;;;20744005;28;20083;-44
2021/11/15 19:01:22;;;;;;;24.05;6.47;;;6.80;99.90;;;;;;20742007;28;20481;-44
2021/11/15 19:11:34;;;;;;;22.17;5.80;;;6.70;99.90;;;;;;20740421;28;20029;-44
2021/11/15 19:21:41;;;;;;;24.38;7.47;;;6.70;99.90;;;;;;20743450;28;20164;-44
2021/11/15 19:31:43;;;;;;;17.43;6.13;;;6.70;99.90;;;;;;20732477;28;20116;-44
2021/11/15 19:41:45;;;;;;;23.05;6.50;;;6.70;99.90;;;;;;20725074;28;20045;-44
2021/11/15 19:51:52;;;;;;;33.53;7.97;;;6.70;99.90;;;;;;20722089;28;20042;-44
2021/11/15 20:01:53;;;;;;;16.77;5.97;;;6.70;99.90;;;;;;20724846;28;20508;-44
2021/11/15 20:11:54;;;;;;;20.73;6.23;;;6.60;99.90;;;;;;20724974;28;20624;-44
2021/11/15 20:21:54;;;;;;;32.03;9.48;;;6.70;99.90;;;;;;20734608;28;20049;-45
2021/11/15 20:31:55;;;;;;;18.30;6.97;;;6.60;99.90;;;;;;20752505;28;20152;-45
2021/11/15 20:41:56;;;;;;;25.42;7.90;;;6.70;99.90;;;;;;20709639;28;20123;-44
2021/11/15 20:51:57;;;;;;;22.73;7.55;;;6.70;99.90;;;;;;20731763;28;20041;-44
2021/11/15 21:02:01;;;;;;;25.92;8.55;;;6.70;99.90;;;;;;20716888;28;20613;-44
2021/11/15 21:12:02;;;;;;;21.98;7.13;;;6.70;99.90;;;;;;20743258;28;20716;-44
2021/11/15 21:22:05;;;;;;;25.35;7.95;;;6.70;99.90;;;;;;20768404;28;20068;-44
2021/11/15 21:32:10;;;;;;;22.65;7.50;;;6.50;99.90;;;;;;20743013;28;20044;-44
2021/11/15 21:42:11;;;;;;;24.67;8.57;;;6.50;99.90;;;;;;20769091;28;20613;-45
2021/11/15 21:52:16;;;;;;;20.65;8.50;;;6.50;99.90;;;;;;20796531;28;20052;-45
2021/11/15 22:02:20;;;;;;;22.17;6.50;;;6.40;99.90;;;;;;20790416;28;20056;-45
2021/11/15 22:12:21;;;;;;;23.63;8.35;;;6.40;99.90;;;;;;20787851;28;20029;-45
2021/11/15 22:22:21;;;;;;;24.27;7.63;;;6.40;99.90;;;;;;20781628;28;20068;-45
2021/11/15 22:32:22;;;;;;;23.40;6.05;;;6.30;99.90;;;;;;20786251;28;20067;-44
2021/11/15 22:42:23;;;;;;;20.23;7.28;;;6.30;99.90;;;;;;20786114;28;20057;-45
2021/11/15 22:52:24;;;;;;;24.35;7.20;;;6.30;99.90;;;;;;20786263;28;20043;-44
2021/11/15 23:02:25;;;;;;;23.45;7.90;;;6.30;99.90;;;;;;20786041;28;20417;-44
2021/11/15 23:12:25;;;;;;;18.08;7.13;;;6.30;99.90;;;;;;20792588;28;20042;-44
2021/11/15 23:22:26;;;;;;;19.55;6.38;;;6.30;99.90;;;;;;20797688;28;21667;-44
2021/11/15 23:32:27;;;;;;;24.45;9.38;;;6.20;99.90;;;;;;20769681;28;20045;-45
2021/11/15 23:42:28;;;;;;;25.00;6.72;;;6.20;99.90;;;;;;20782458;28;20093;-45
2021/11/15 23:52:30;;;;;;;21.92;6.60;;;6.20;99.90;;;;;;20781322;28;20096;-44
